createdAt,value
2022-11-05T00:01:16.428Z,8.54
2022-11-05T00:06:41.714Z,8.56
2022-11-05T00:12:07.327Z,8.54
2022-11-05T00:17:14.896Z,8.50
2022-11-05T00:22:40.301Z,8.50
2022-11-05T00:27:52.700Z,8.53
2022-11-05T00:33:04.900Z,8.55
2022-11-05T00:38:13.008Z,8.59
2022-11-05T00:43:53.255Z,8.61
2022-11-05T00:49:18.630Z,8.58
2022-11-05T00:54:26.241Z,8.59
2022-11-05T00:59:33.959Z,8.60
2022-11-05T01:04:41.548Z,8.62
2022-11-05T01:09:49.160Z,8.69
2022-11-05T01:14:56.813Z,8.73
2022-11-05T01:20:04.643Z,8.70
2022-11-05T01:25:12.965Z,8.69
2022-11-05T01:30:21.315Z,8.74
2022-11-05T01:35:29.073Z,8.78
2022-11-05T01:40:36.862Z,8.82
2022-11-05T01:45:45.343Z,8.84
2022-11-05T01:50:58.869Z,8.84
2022-11-05T01:56:10.877Z,8.81
2022-11-05T02:01:19.894Z,8.81
2022-11-05T02:06:30.239Z,8.90
2022-11-05T02:11:38.103Z,8.97
2022-11-05T02:16:52.141Z,8.99
2022-11-05T02:22:39.324Z,9.01
2022-11-05T02:28:14.142Z,9.05
2022-11-05T02:33:32.213Z,9.06
2022-11-05T02:38:47.307Z,9.07
2022-11-05T02:44:14.026Z,9.09
2022-11-05T02:49:32.032Z,9.10
2022-11-05T02:54:44.303Z,9.18
2022-11-05T03:00:00.939Z,9.23
2022-11-05T03:05:09.265Z,9.22
2022-11-05T03:10:34.704Z,9.20
2022-11-05T03:15:54.649Z,9.17
2022-11-05T03:21:07.212Z,9.18
2022-11-05T03:26:20.361Z,9.24
2022-11-05T03:31:30.303Z,9.26
2022-11-05T03:36:42.521Z,9.27
2022-11-05T03:41:53.317Z,9.33
2022-11-05T03:47:05.583Z,9.37
2022-11-05T03:52:16.694Z,9.37
2022-11-05T03:57:30.299Z,9.36
2022-11-05T04:02:38.458Z,9.37
2022-11-05T04:08:07.668Z,9.38
2022-11-05T04:13:28.150Z,9.38
2022-11-05T04:18:36.624Z,9.40
2022-11-05T04:24:01.868Z,9.43
2022-11-05T04:29:27.752Z,9.47
2022-11-05T04:34:35.469Z,9.47
2022-11-05T04:39:43.142Z,9.46
2022-11-05T04:44:50.828Z,9.47
2022-11-05T04:49:58.550Z,9.47
2022-11-05T04:55:08.035Z,9.44
2022-11-05T05:00:16.807Z,9.43
2022-11-05T05:05:24.419Z,9.46
2022-11-05T05:10:32.151Z,9.50
2022-11-05T05:15:40.214Z,9.54
2022-11-05T05:21:04.158Z,9.54
2022-11-05T05:26:11.783Z,9.54
2022-11-05T05:31:19.453Z,9.55
2022-11-05T05:36:25.906Z,9.57
2022-11-05T05:41:33.873Z,9.58
2022-11-05T05:46:39.965Z,9.55
2022-11-05T05:51:49.530Z,9.48
2022-11-05T05:56:58.278Z,9.39
2022-11-05T06:02:06.244Z,9.34
2022-11-05T06:07:12.512Z,9.34
2022-11-05T06:12:20.221Z,9.37
2022-11-05T06:17:28.250Z,9.42
2022-11-05T06:22:34.482Z,9.47
2022-11-05T06:27:42.280Z,9.48
2022-11-05T06:32:50.377Z,9.45
2022-11-05T06:38:01.814Z,9.44
2022-11-05T06:43:09.729Z,9.48
2022-11-05T06:48:18.208Z,9.53
2022-11-05T06:53:26.005Z,9.54
2022-11-05T06:58:33.822Z,9.49
2022-11-05T07:03:42.015Z,9.44
2022-11-05T07:08:50.481Z,9.43
2022-11-05T07:13:58.558Z,9.45
2022-11-05T07:19:06.283Z,9.45
2022-11-05T07:24:15.469Z,9.43
2022-11-05T07:29:23.198Z,9.43
2022-11-05T07:34:30.840Z,9.42
2022-11-05T07:39:38.528Z,9.46
2022-11-05T07:44:46.234Z,9.48
2022-11-05T07:49:53.868Z,9.46
2022-11-05T07:55:01.690Z,9.47
2022-11-05T08:00:12.713Z,9.49
2022-11-05T08:05:20.514Z,9.55
2022-11-05T08:10:28.604Z,9.61
2022-11-05T08:15:37.329Z,9.58
2022-11-05T08:20:46.976Z,9.57
2022-11-05T08:25:55.534Z,9.58
2022-11-05T08:31:03.295Z,9.62
2022-11-05T08:36:11.290Z,9.65
2022-11-05T08:41:19.047Z,9.65
2022-11-05T08:46:26.830Z,9.65
2022-11-05T08:51:34.608Z,9.70
2022-11-05T08:56:42.324Z,9.78
2022-11-05T09:01:50.985Z,9.86
2022-11-05T09:06:58.804Z,9.89
2022-11-05T09:12:13.122Z,9.90
2022-11-05T09:17:22.936Z,9.92
2022-11-05T09:22:31.013Z,9.96
2022-11-05T09:27:38.715Z,10.00
2022-11-05T09:32:46.406Z,10.02
2022-11-05T09:37:59.742Z,10.02
2022-11-05T09:43:16.724Z,10.01
2022-11-05T09:48:29.390Z,10.03
2022-11-05T09:53:41.530Z,10.09
2022-11-05T09:58:53.141Z,10.22
2022-11-05T10:04:06.621Z,10.30
2022-11-05T10:09:21.559Z,10.36
2022-11-05T10:14:34.675Z,10.38
2022-11-05T10:19:51.036Z,10.43
2022-11-05T10:24:59.293Z,10.52
2022-11-05T10:30:08.477Z,10.61
2022-11-05T10:35:22.789Z,10.68
2022-11-05T10:40:44.420Z,10.69
2022-11-05T10:45:59.428Z,10.68
2022-11-05T10:51:09.601Z,10.65
2022-11-05T10:56:34.350Z,10.63
2022-11-05T11:01:42.204Z,10.64
2022-11-05T11:06:51.282Z,10.65
2022-11-05T11:12:15.035Z,10.67
2022-11-05T11:17:35.263Z,10.67
2022-11-05T11:23:03.815Z,10.66
2022-11-05T11:28:20.561Z,10.64
2022-11-05T11:33:30.431Z,10.62
2022-11-05T11:38:39.719Z,10.61
2022-11-05T11:43:48.388Z,10.62
2022-11-05T11:48:56.397Z,10.63
2022-11-05T11:54:05.803Z,10.65
2022-11-05T11:59:40.864Z,10.67
2022-11-05T12:05:18.916Z,10.69
2022-11-05T12:10:42.814Z,10.69
2022-11-05T12:15:53.921Z,10.70
2022-11-05T12:21:09.522Z,10.73
2022-11-05T12:26:28.023Z,10.76
2022-11-05T12:31:44.439Z,10.76
2022-11-05T12:37:24.462Z,10.70
2022-11-05T12:42:46.615Z,10.67
2022-11-05T12:48:10.586Z,10.71
2022-11-05T12:53:45.899Z,10.78
2022-11-05T12:59:01.549Z,10.81
2022-11-05T13:04:15.906Z,10.76
2022-11-05T13:09:29.691Z,10.70
2022-11-05T13:14:41.738Z,10.67
2022-11-05T13:19:55.252Z,10.68
2022-11-05T13:25:07.210Z,10.69
2022-11-05T13:30:20.805Z,10.73
2022-11-05T13:35:32.975Z,10.69
2022-11-05T13:40:53.309Z,10.63
2022-11-05T13:46:38.662Z,10.63
2022-11-05T13:51:55.941Z,10.65
2022-11-05T13:57:24.145Z,10.67
2022-11-05T14:02:37.430Z,10.66
2022-11-05T14:07:49.669Z,10.64
2022-11-05T14:13:00.643Z,10.56
2022-11-05T14:18:31.826Z,10.51
2022-11-05T14:23:50.801Z,10.51
2022-11-05T14:29:39.625Z,10.54
2022-11-05T14:34:54.780Z,10.57
2022-11-05T14:40:30.657Z,10.55
2022-11-05T14:45:41.471Z,10.53
2022-11-05T14:50:50.094Z,10.54
2022-11-05T14:56:03.382Z,10.52
2022-11-05T15:01:31.768Z,10.48
2022-11-05T15:06:38.324Z,10.43
2022-11-05T15:11:53.553Z,10.39
2022-11-05T15:17:05.533Z,10.37
2022-11-05T15:22:26.841Z,10.35
2022-11-05T15:27:51.063Z,10.30
2022-11-05T15:33:11.294Z,10.27
2022-11-05T15:38:30.621Z,10.23
2022-11-05T15:43:47.692Z,10.20
2022-11-05T15:48:58.681Z,10.17
2022-11-05T15:54:29.283Z,10.11
2022-11-05T15:59:35.329Z,10.06
2022-11-05T16:04:47.225Z,10.05
2022-11-05T16:09:58.544Z,10.02
2022-11-05T16:15:21.644Z,9.94
2022-11-05T16:20:35.639Z,9.83
2022-11-05T16:25:44.371Z,9.76
2022-11-05T16:31:01.204Z,9.72
2022-11-05T16:36:10.952Z,9.68
2022-11-05T16:41:21.383Z,9.60
2022-11-05T16:46:31.314Z,9.50
2022-11-05T16:51:39.187Z,9.40
2022-11-05T16:56:47.717Z,9.33
2022-11-05T17:01:56.076Z,9.28
2022-11-05T17:07:04.053Z,9.24
2022-11-05T17:12:12.058Z,9.18
2022-11-05T17:17:19.670Z,9.10
2022-11-05T17:22:27.349Z,9.03
2022-11-05T17:27:34.969Z,8.97
2022-11-05T17:32:42.717Z,8.94
2022-11-05T17:37:50.445Z,8.89
2022-11-05T17:42:58.154Z,8.79
2022-11-05T17:48:06.202Z,8.64
2022-11-05T17:53:12.837Z,8.53
2022-11-05T17:58:21.102Z,8.44
2022-11-05T18:03:27.373Z,8.35
2022-11-05T18:08:35.754Z,8.24
2022-11-05T18:13:43.461Z,8.10
2022-11-05T18:19:03.996Z,7.96
2022-11-05T18:24:16.088Z,7.85
2022-11-05T18:29:26.938Z,7.80
2022-11-05T18:34:34.730Z,7.72
2022-11-05T18:39:41.151Z,7.62
2022-11-05T18:44:49.604Z,7.48
2022-11-05T18:49:57.452Z,7.34
2022-11-05T18:55:05.659Z,7.24
2022-11-05T19:00:15.539Z,7.16
2022-11-05T19:05:28.963Z,7.12
2022-11-05T19:10:42.224Z,7.05
2022-11-05T19:15:49.973Z,6.96
2022-11-05T19:20:57.845Z,6.82
2022-11-05T19:26:08.883Z,6.70
2022-11-05T19:31:19.835Z,6.59
2022-11-05T19:36:27.763Z,6.50
2022-11-05T19:41:34.759Z,6.37
2022-11-05T19:46:44.131Z,6.19
2022-11-05T19:51:52.196Z,6.01
2022-11-05T19:57:00.056Z,5.84
2022-11-05T20:02:13.366Z,5.70
2022-11-05T20:07:23.910Z,5.59
2022-11-05T20:12:32.068Z,5.44
2022-11-05T20:17:45.062Z,5.26
2022-11-05T20:22:57.735Z,5.12
2022-11-05T20:28:05.882Z,5.02
2022-11-05T20:33:14.253Z,4.95
2022-11-05T20:38:22.101Z,4.88
2022-11-05T20:43:31.391Z,4.80
2022-11-05T20:48:39.518Z,4.67
2022-11-05T20:53:46.359Z,4.52
2022-11-05T20:58:55.668Z,4.38
2022-11-05T21:04:04.390Z,4.28
2022-11-05T21:09:12.278Z,4.28
2022-11-05T21:14:18.564Z,4.30
2022-11-05T21:19:26.500Z,4.28
2022-11-05T21:24:35.014Z,4.24
2022-11-05T21:29:44.070Z,4.14
2022-11-05T21:34:54.150Z,4.07
2022-11-05T21:40:02.028Z,4.05
2022-11-05T21:45:09.163Z,4.11
2022-11-05T21:50:21.655Z,4.14
2022-11-05T21:55:47.217Z,4.10
2022-11-05T22:00:54.988Z,4.01
2022-11-05T22:06:03.028Z,3.91
2022-11-05T22:11:09.189Z,3.81
2022-11-05T22:16:17.122Z,3.73
2022-11-05T22:21:25.331Z,3.68
2022-11-05T22:26:33.247Z,3.62
2022-11-05T22:31:41.462Z,3.53
2022-11-05T22:36:49.327Z,3.41
2022-11-05T22:42:00.440Z,3.23
2022-11-05T22:47:10.850Z,3.08
2022-11-05T22:52:18.509Z,3.03
2022-11-05T22:57:28.916Z,3.06
2022-11-05T23:02:40.614Z,3.09
2022-11-05T23:08:05.936Z,3.02
2022-11-05T23:13:13.709Z,2.90
2022-11-05T23:18:37.895Z,2.77
2022-11-05T23:24:14.957Z,2.65
2022-11-05T23:29:24.521Z,2.57
2022-11-05T23:34:32.406Z,2.50
2022-11-05T23:39:42.645Z,2.44
2022-11-05T23:45:14.065Z,2.36
2022-11-05T23:50:22.216Z,2.24
2022-11-05T23:55:31.097Z,2.14
